Time;durP1;ratioP1;P1;durP2;ratioP2;P2;SDS_P1;SDS_P2;PMS_P1;PMS_P2;Temp;Humidity;BMP_temperature;BMP_pressure;BME280_temperature;BME280_humidity;BME280_pressure;Samples;Min_cycle;Max_cycle;Signal;HPM_P1;HPM_P2
2021/12/29 00:00:43;;;;;;;;;21.00;20.00;;;;;20.54;38.97;99639.00;109054;1277;23051;-76
2021/12/29 00:03:09;;;;;;;;;21.00;21.00;;;;;20.54;38.83;99638.70;109129;1277;20796;-76
2021/12/29 00:05:35;;;;;;;;;20.50;19.50;;;;;20.53;38.90;99644.57;109099;1277;19948;-77
2021/12/29 00:08:01;;;;;;;;;24.33;20.33;;;;;20.53;38.72;99638.79;109064;1277;21245;-77
2021/12/29 00:10:27;;;;;;;;;23.00;20.00;;;;;20.53;38.68;99633.48;109047;1278;19255;-75
2021/12/29 00:12:54;;;;;;;;;25.00;23.50;;;;;20.53;38.93;99633.34;109082;1277;20914;-76
2021/12/29 00:15:20;;;;;;;;;21.67;19.33;;;;;20.52;38.69;99634.39;109013;1276;21022;-79
2021/12/29 00:17:46;;;;;;;;;26.50;23.50;;;;;20.52;38.93;99631.25;109029;1277;21271;-76
2021/12/29 00:20:12;;;;;;;;;21.50;19.00;;;;;20.53;38.59;99632.13;109208;1273;74982;-77
2021/12/29 00:22:37;;;;;;;;;23.00;23.00;;;;;20.54;38.67;99635.65;109017;1278;23871;-76
2021/12/29 00:25:03;;;;;;;;;26.00;20.00;;;;;20.52;38.89;99632.71;109059;1277;20030;-76
2021/12/29 00:27:29;;;;;;;;;24.00;23.00;;;;;20.53;38.83;99633.18;109053;1277;19328;-77
2021/12/29 00:29:55;;;;;;;;;19.50;19.00;;;;;20.52;38.86;99630.71;109007;1278;20167;-76
2021/12/29 00:32:21;;;;;;;;;21.00;20.00;;;;;20.52;38.76;99630.45;109067;1276;22293;-76
2021/12/29 00:34:47;;;;;;;;;23.00;21.00;;;;;20.52;38.77;99628.98;109055;1276;19736;-76
2021/12/29 00:37:12;;;;;;;;;21.50;19.50;;;;;20.52;38.76;99627.19;109030;1278;20142;-77
2021/12/29 00:39:38;;;;;;;;;26.00;23.00;;;;;20.51;38.63;99627.18;109096;1276;23317;-77
2021/12/29 00:42:04;;;;;;;;;20.50;20.00;;;;;20.52;38.69;99630.07;109061;1278;19546;-76
2021/12/29 00:44:31;;;;;;;;;26.00;23.00;;;;;20.51;38.81;99629.39;109039;1277;23267;-76
2021/12/29 00:46:57;;;;;;;;;21.33;20.33;;;;;20.51;38.74;99627.63;109033;1277;20462;-76
2021/12/29 00:49:30;;;;;;;;;26.00;20.00;;;;;20.51;38.73;99623.48;109058;1276;21010;-76
2021/12/29 00:51:56;;;;;;;;;22.67;20.00;;;;;20.50;38.63;99620.09;109071;1277;22025;-76
2021/12/29 00:54:22;;;;;;;;;25.00;22.00;;;;;20.49;38.59;99617.33;109046;1276;19187;-76
2021/12/29 00:56:48;;;;;;;;;24.00;20.50;;;;;20.50;38.66;99623.27;109049;1277;25099;-76
2021/12/29 00:59:13;;;;;;;;;19.50;19.00;;;;;20.50;38.76;99624.19;109037;1277;20175;-77
2021/12/29 01:01:39;;;;;;;;;21.00;20.00;;;;;20.49;38.70;99622.63;109092;1277;19630;-76
2021/12/29 01:04:05;;;;;;;;;23.50;20.00;;;;;20.49;38.54;99625.36;109044;1276;20146;-77
2021/12/29 01:06:31;;;;;;;;;21.50;19.50;;;;;20.49;38.62;99627.21;109041;1278;20231;-76
2021/12/29 01:08:57;;;;;;;;;23.00;20.00;;;;;20.48;38.56;99621.34;109076;1275;22284;-77
2021/12/29 01:11:23;;;;;;;;;20.00;19.00;;;;;20.43;38.51;99611.95;109077;1277;20098;-77
2021/12/29 01:13:49;;;;;;;;;22.33;20.00;;;;;20.48;38.51;99621.84;109072;1276;23730;-77
2021/12/29 01:16:36;;;;;;;;;17.00;16.33;;;;;20.48;38.38;99622.05;109068;1277;19787;-77
2021/12/29 01:19:02;;;;;;;;;19.67;19.00;;;;;20.48;38.54;99622.23;108995;1277;20009;-77
2021/12/29 01:21:28;;;;;;;;;23.00;19.50;;;;;20.48;38.57;99620.59;109006;1276;22564;-76
2021/12/29 01:23:53;;;;;;;;;19.00;19.00;;;;;20.48;38.47;99622.77;109081;1277;19160;-77
2021/12/29 01:26:19;;;;;;;;;21.00;20.00;;;;;20.48;38.50;99628.04;109061;1277;23188;-77
2021/12/29 01:28:45;;;;;;;;;27.00;19.00;;;;;20.48;38.62;99625.20;109059;1277;20431;-77
2021/12/29 01:31:11;;;;;;;;;22.50;19.50;;;;;20.48;38.52;99620.96;109066;1278;19567;-77
2021/12/29 01:33:37;;;;;;;;;19.50;18.50;;;;;20.47;38.45;99620.72;109114;1276;19460;-77
2021/12/29 01:36:03;;;;;;;;;20.50;17.00;;;;;20.47;38.44;99629.05;109082;1276;20078;-77
2021/12/29 01:38:29;;;;;;;;;21.50;19.50;;;;;20.47;38.51;99637.89;109076;1276;19323;-76
2021/12/29 01:40:54;;;;;;;;;17.00;17.00;;;;;20.47;38.31;99638.68;109047;1277;23407;-76
2021/12/29 01:43:20;;;;;;;;;24.00;20.00;;;;;20.47;38.40;99637.95;109073;1275;20976;-77
2021/12/29 01:45:46;;;;;;;;;21.00;20.00;;;;;20.48;38.31;99631.89;109032;1276;20169;-76
2021/12/29 01:48:12;;;;;;;;;24.00;23.00;;;;;20.47;38.27;99633.02;109035;1276;20129;-76
2021/12/29 01:50:39;;;;;;;;;24.00;21.00;;;;;20.47;38.23;99628.67;109078;1277;22491;-76
2021/12/29 01:53:08;;;;;;;;;23.00;20.00;;;;;20.46;38.36;99635.54;109007;1277;19316;-77
2021/12/29 01:55:35;;;;;;;;;20.00;19.67;;;;;20.46;38.29;99641.23;109054;1277;19862;-76
2021/12/29 01:58:00;;;;;;;;;21.50;19.00;;;;;20.46;38.34;99640.85;109040;1277;22345;-77
2021/12/29 02:00:26;;;;;;;;;22.00;19.50;;;;;20.46;38.30;99638.88;109035;1278;19156;-76
2021/12/29 02:02:52;;;;;;;;;19.00;17.00;;;;;20.45;38.35;99635.44;109070;1277;20949;-77
2021/12/29 02:05:18;;;;;;;;;21.00;19.00;;;;;20.45;38.35;99635.81;109084;1277;20266;-77
2021/12/29 02:07:44;;;;;;;;;20.00;19.50;;;;;20.45;38.40;99625.90;109081;1277;23855;-76
2021/12/29 02:10:10;;;;;;;;;19.50;19.00;;;;;20.44;38.24;99623.41;109088;1278;21057;-76
2021/12/29 02:12:36;;;;;;;;;18.00;17.00;;;;;20.44;38.34;99614.91;109075;1277;20183;-77
2021/12/29 02:15:01;;;;;;;;;21.00;19.00;;;;;20.43;38.27;99613.70;109059;1276;19298;-77
2021/12/29 02:17:27;;;;;;;;;19.50;17.50;;;;;20.44;38.38;99609.73;109086;1276;19341;-76
2021/12/29 02:19:53;;;;;;;;;23.50;21.00;;;;;20.40;38.36;99605.44;109086;1276;20709;-76
2021/12/29 02:22:25;;;;;;;;;17.67;16.00;;;;;20.44;38.15;99610.77;109066;1278;19318;-77
2021/12/29 02:25:05;;;;;;;;;20.33;17.33;;;;;20.44;38.37;99612.03;109061;1276;22713;-77
2021/12/29 02:27:31;;;;;;;;;19.67;17.33;;;;;20.43;38.56;99614.12;109122;1276;21685;-77
2021/12/29 02:29:56;;;;;;;;;23.50;19.50;;;;;20.43;38.43;99616.09;109111;1276;20043;-77
2021/12/29 02:32:22;;;;;;;;;17.50;17.00;;;;;20.44;38.24;99620.58;109152;1277;19510;-78
2021/12/29 02:34:48;;;;;;;;;20.00;20.00;;;;;20.44;38.27;99618.35;109145;1277;20273;-77
2021/12/29 02:37:19;;;;;;;;;23.50;19.00;;;;;20.44;38.11;99621.58;109059;1277;23119;-77
2021/12/29 02:39:45;;;;;;;;;24.67;20.33;;;;;20.44;38.17;99627.94;109088;1277;23084;-77
2021/12/29 02:42:11;;;;;;;;;16.00;15.00;;;;;20.44;38.14;99622.50;109026;1277;20709;-77
2021/12/29 02:44:40;;;;;;;;;19.00;19.00;;;;;20.44;38.09;99623.29;109107;1278;19129;-77
2021/12/29 02:47:06;;;;;;;;;22.00;19.67;;;;;20.44;38.14;99619.44;109005;1277;24230;-77
2021/12/29 02:49:32;;;;;;;;;19.00;16.00;;;;;20.44;38.31;99621.29;109029;1276;23086;-77
2021/12/29 02:51:58;;;;;;;;;17.00;16.00;;;;;20.43;38.36;99621.03;109034;1276;19125;-77
2021/12/29 02:54:24;;;;;;;;;20.00;19.00;;;;;20.43;38.42;99622.83;109058;1277;19293;-78
2021/12/29 02:56:49;;;;;;;;;20.00;18.50;;;;;20.43;38.36;99622.36;110182;1277;21787;-77
2021/12/29 02:59:15;;;;;;;;;19.50;18.50;;;;;20.42;38.48;99622.95;109105;1277;21005;-77
2021/12/29 03:01:41;;;;;;;;;25.00;21.00;;;;;20.44;38.28;99623.30;109102;1276;19731;-77
2021/12/29 03:04:07;;;;;;;;;20.00;19.00;;;;;20.44;38.34;99622.71;109130;1276;20145;-76
2021/12/29 03:06:33;;;;;;;;;18.50;15.50;;;;;20.44;38.24;99623.33;109102;1276;19730;-76
2021/12/29 03:08:59;;;;;;;;;20.50;19.00;;;;;20.43;38.38;99626.27;109114;1276;22345;-77
2021/12/29 03:11:24;;;;;;;;;20.00;18.00;;;;;20.42;38.36;99619.69;109149;1277;20058;-77
2021/12/29 03:13:50;;;;;;;;;20.00;17.00;;;;;20.42;38.30;99620.08;109045;1277;19185;-78
2021/12/29 03:16:16;;;;;;;;;18.50;18.50;;;;;20.41;38.39;99620.20;109086;1277;22660;-77
2021/12/29 03:18:42;;;;;;;;;20.50;17.00;;;;;20.42;38.21;99614.50;109016;1278;20069;-79
2021/12/29 03:21:08;;;;;;;;;20.00;17.00;;;;;20.41;38.16;99613.29;109049;1277;19149;-77
2021/12/29 03:23:34;;;;;;;;;20.00;17.50;;;;;20.41;38.28;99612.70;109070;1278;24145;-77
2021/12/29 03:26:00;;;;;;;;;16.00;16.00;;;;;20.41;38.30;99610.48;109087;1277;22541;-78
2021/12/29 03:28:25;;;;;;;;;20.00;17.00;;;;;20.40;38.21;99605.08;109086;1276;19252;-73
2021/12/29 03:30:53;;;;;;;;;21.50;19.00;;;;;20.40;38.18;99603.82;109030;1277;19936;-76
2021/12/29 03:33:19;;;;;;;;;20.00;17.00;;;;;20.41;38.16;99605.16;109037;1277;21855;-76
2021/12/29 03:35:44;;;;;;;;;20.00;20.00;;;;;20.41;38.07;99598.88;109081;1277;19259;-76
2021/12/29 03:38:10;;;;;;;;;21.00;19.00;;;;;20.41;38.27;99592.56;109056;1277;20139;-76
2021/12/29 03:40:36;;;;;;;;;26.00;21.00;;;;;20.40;38.22;99592.64;109051;1278;19989;-75
2021/12/29 03:43:02;;;;;;;;;19.50;16.00;;;;;20.40;38.23;99601.14;109014;1276;19206;-76
2021/12/29 03:45:28;;;;;;;;;20.00;16.00;;;;;20.41;38.28;99599.05;109053;1278;23784;-76
2021/12/29 03:47:54;;;;;;;;;19.00;16.00;;;;;20.41;38.32;99612.04;109062;1277;21802;-76
2021/12/29 03:50:20;;;;;;;;;19.00;17.00;;;;;20.40;38.35;99612.52;109067;1277;19159;-76
2021/12/29 03:52:45;;;;;;;;;19.50;16.00;;;;;20.40;38.25;99617.05;109044;1276;19555;-76
2021/12/29 03:55:11;;;;;;;;;20.00;19.00;;;;;20.40;38.30;99623.28;109031;1276;20693;-76
2021/12/29 03:57:37;;;;;;;;;19.00;17.50;;;;;20.40;38.29;99622.70;109066;1277;19398;-76
2021/12/29 04:00:03;;;;;;;;;15.50;15.00;;;;;20.40;38.29;99620.42;109031;1276;22290;-76
2021/12/29 04:02:29;;;;;;;;;19.00;17.00;;;;;20.40;38.16;99626.42;109072;1278;20076;-75
2021/12/29 04:04:55;;;;;;;;;16.00;16.00;;;;;20.39;38.32;99625.20;109048;1277;19075;-76
2021/12/29 04:07:21;;;;;;;;;20.50;17.50;;;;;20.36;38.27;99626.94;109078;1276;23437;-76
2021/12/29 04:09:46;;;;;;;;;15.50;14.00;;;;;20.38;38.15;99636.70;109037;1276;22841;-76
2021/12/29 04:12:12;;;;;;;;;22.00;17.00;;;;;20.39;38.28;99640.85;109044;1277;19693;-77
2021/12/29 04:14:38;;;;;;;;;19.00;17.00;;;;;20.39;38.20;99641.23;108987;1276;19545;-76
2021/12/29 04:17:09;;;;;;;;;19.00;17.50;;;;;20.38;37.96;99643.83;109020;1276;23482;-76
2021/12/29 04:20:54;;;;;;;;;19.67;18.33;;;;;20.39;38.08;99644.07;109027;1277;23780;-76
2021/12/29 04:22:26;;;;;;;;;18.00;16.50;;;;;20.39;38.07;99645.91;109041;1277;19557;-74
2021/12/29 04:24:52;;;;;;;;;16.00;15.00;;;;;20.39;38.11;99646.39;109020;1277;21971;-77
2021/12/29 04:27:21;;;;;;;;;23.00;19.00;;;;;20.39;38.05;99639.52;109052;1276;19396;-76
2021/12/29 04:29:47;;;;;;;;;23.67;17.00;;;;;20.39;38.19;99642.94;109063;1277;22136;-76
2021/12/29 04:32:12;;;;;;;;;19.00;17.00;;;;;20.39;38.23;99642.31;109083;1277;20103;-77
2021/12/29 04:34:38;;;;;;;;;23.00;20.00;;;;;20.38;38.26;99643.23;109061;1277;19535;-77
2021/12/29 04:37:04;;;;;;;;;17.00;16.00;;;;;20.38;38.17;99644.33;109045;1277;19514;-77
2021/12/29 04:39:30;;;;;;;;;17.00;16.00;;;;;20.38;38.14;99644.32;109022;1277;20134;-76
2021/12/29 04:41:56;;;;;;;;;18.50;15.00;;;;;20.38;38.21;99645.98;109050;1276;20261;-76
2021/12/29 04:44:22;;;;;;;;;21.00;20.00;;;;;20.38;38.15;99640.59;109064;1277;23833;-75
2021/12/29 04:46:48;;;;;;;;;20.50;17.50;;;;;20.38;38.18;99641.27;109019;1276;21951;-76
2021/12/29 04:49:14;;;;;;;;;21.00;19.00;;;;;20.35;38.33;99634.10;109025;1277;22345;-76
2021/12/29 04:51:47;;;;;;;;;19.33;16.67;;;;;20.37;38.26;99638.42;109032;1278;22695;-76
2021/12/29 04:54:13;;;;;;;;;16.00;16.00;;;;;20.36;38.19;99638.67;109007;1278;21801;-76
2021/12/29 04:56:39;;;;;;;;;18.50;17.00;;;;;20.36;38.13;99639.42;109076;1277;19397;-76
2021/12/29 04:59:04;;;;;;;;;18.50;16.00;;;;;20.33;38.17;99642.71;109101;1277;19944;-76
2021/12/29 05:01:30;;;;;;;;;21.00;19.00;;;;;20.36;38.24;99649.80;109057;1277;20224;-76
2021/12/29 05:03:56;;;;;;;;;18.50;16.00;;;;;20.35;38.01;99650.06;109039;1278;20697;-76
2021/12/29 05:09:06;;;;;;;;;21.00;17.67;;;;;20.36;38.31;99656.50;109054;1276;20698;-76
2021/12/29 05:11:33;;;;;;;;;17.00;15.00;;;;;20.35;38.23;99652.20;109002;1277;19313;-76
2021/12/29 05:13:58;;;;;;;;;19.00;16.00;;;;;20.35;38.19;99652.77;109101;1276;20030;-76
2021/12/29 05:16:28;;;;;;;;;19.00;16.50;;;;;20.36;38.34;99655.36;109063;1277;20770;-76
2021/12/29 05:18:53;;;;;;;;;18.67;18.00;;;;;20.36;38.33;99659.23;109083;1277;22680;-77
2021/12/29 05:21:19;;;;;;;;;18.50;17.50;;;;;20.36;38.25;99657.89;109105;1276;20908;-77
2021/12/29 05:23:45;;;;;;;;;22.00;16.00;;;;;20.38;38.31;99666.97;109070;1276;20057;-77
2021/12/29 05:26:11;;;;;;;;;20.00;19.50;;;;;20.37;38.26;99661.27;109104;1277;22311;-75
2021/12/29 05:28:37;;;;;;;;;22.00;19.00;;;;;20.36;38.27;99663.65;109087;1278;20224;-75
2021/12/29 05:31:03;;;;;;;;;19.00;17.50;;;;;20.36;38.24;99663.11;109093;1277;23877;-76
2021/12/29 05:33:28;;;;;;;;;20.00;15.50;;;;;20.36;38.20;99662.77;109061;1277;23964;-76
2021/12/29 05:35:54;;;;;;;;;22.50;17.00;;;;;20.35;38.25;99663.81;109073;1277;19970;-76
2021/12/29 05:38:20;;;;;;;;;19.00;17.50;;;;;20.41;38.41;99667.29;109085;1277;22273;-76
2021/12/29 05:40:48;;;;;;;;;19.00;17.00;;;;;20.39;38.41;99671.33;109088;1276;19261;-76
2021/12/29 05:43:14;;;;;;;;;20.67;16.33;;;;;20.36;38.61;99665.88;109068;1276;19895;-76
2021/12/29 05:45:40;;;;;;;;;19.00;16.00;;;;;20.36;38.57;99665.38;109048;1276;24051;-77
2021/12/29 05:48:06;;;;;;;;;22.50;19.50;;;;;20.36;38.56;99667.35;109056;1278;19362;-75
2021/12/29 05:50:32;;;;;;;;;19.00;18.00;;;;;20.38;38.39;99671.62;109070;1278;19411;-75
2021/12/29 05:52:57;;;;;;;;;17.00;16.00;;;;;20.38;38.49;99674.00;109040;1277;23623;-75
2021/12/29 05:55:23;;;;;;;;;19.00;18.50;;;;;20.37;38.37;99671.91;109091;1277;20249;-75
2021/12/29 05:57:49;;;;;;;;;20.00;16.00;;;;;20.37;38.41;99667.73;108966;1277;20344;-76
2021/12/29 06:00:15;;;;;;;;;19.00;16.00;;;;;20.36;38.36;99659.59;109127;1276;20719;-76
2021/12/29 06:02:41;;;;;;;;;17.00;17.00;;;;;20.36;38.54;99668.27;109080;1276;24557;-75
2021/12/29 06:05:07;;;;;;;;;19.50;17.00;;;;;20.36;38.55;99682.84;109038;1277;19374;-75
2021/12/29 06:07:32;;;;;;;;;16.50;16.00;;;;;20.35;38.57;99687.02;109040;1277;21595;-75
2021/12/29 06:09:58;;;;;;;;;16.00;15.00;;;;;20.35;38.46;99689.79;109013;1277;19588;-76
2021/12/29 06:12:25;;;;;;;;;16.00;15.00;;;;;20.34;38.53;99695.84;109095;1276;19378;-75
2021/12/29 06:14:51;;;;;;;;;18.00;16.00;;;;;20.35;38.48;99696.40;109045;1276;23331;-75
2021/12/29 06:17:16;;;;;;;;;18.50;16.50;;;;;20.35;38.55;99692.01;109080;1277;20505;-77
2021/12/29 06:19:42;;;;;;;;;15.00;13.00;;;;;20.35;38.58;99692.92;109136;1278;19983;-77
2021/12/29 06:22:10;;;;;;;;;15.00;15.00;;;;;20.35;38.52;99695.44;109092;1277;20310;-77
2021/12/29 06:24:36;;;;;;;;;17.67;15.00;;;;;20.34;38.53;99695.69;109049;1277;23743;-76
2021/12/29 06:27:02;;;;;;;;;16.00;15.00;;;;;20.36;38.63;99692.38;109055;1277;19644;-80
2021/12/29 06:29:28;;;;;;;;;15.50;15.50;;;;;20.39;38.77;99696.64;109078;1276;20071;-77
2021/12/29 06:31:53;;;;;;;;;17.00;16.00;;;;;20.42;38.68;99698.23;109037;1277;19135;-76
2021/12/29 06:34:19;;;;;;;;;18.00;15.00;;;;;20.43;38.92;99702.64;109048;1277;19249;-78
2021/12/29 06:36:45;;;;;;;;;16.50;16.50;;;;;20.49;39.14;99709.41;109074;1277;22550;-77
2021/12/29 06:39:11;;;;;;;;;18.50;16.00;;;;;20.52;39.59;99709.48;109077;1278;22463;-81
2021/12/29 06:41:37;;;;;;;;;16.00;15.00;;;;;20.48;40.13;99711.83;109045;1277;21692;-81
2021/12/29 06:44:03;;;;;;;;;16.00;16.00;;;;;20.60;40.60;99712.20;109099;1276;20336;-80
2021/12/29 06:46:28;;;;;;;;;16.50;15.00;;;;;20.74;40.51;99713.95;109061;1278;23304;-77
2021/12/29 06:48:54;;;;;;;;;20.00;17.00;;;;;20.84;40.53;99716.39;109090;1277;19382;-82
2021/12/29 06:51:20;;;;;;;;;18.50;15.00;;;;;20.93;40.92;99714.16;109005;1277;20731;-82
2021/12/29 06:53:46;;;;;;;;;16.00;15.00;;;;;21.01;40.86;99709.21;109068;1277;19162;-81
2021/12/29 06:56:12;;;;;;;;;19.00;15.50;;;;;21.03;40.96;99708.23;109103;1276;20994;-80
2021/12/29 06:58:38;;;;;;;;;14.00;14.00;;;;;21.09;41.12;99714.02;109051;1277;20690;-82
2021/12/29 07:01:04;;;;;;;;;15.00;15.00;;;;;21.13;41.16;99715.84;109077;1278;19318;-81
2021/12/29 07:03:30;;;;;;;;;17.67;14.33;;;;;21.17;41.09;99712.61;109030;1277;20794;-81
2021/12/29 07:05:56;;;;;;;;;19.00;17.00;;;;;21.17;41.00;99719.70;109100;1277;22071;-83
2021/12/29 07:08:22;;;;;;;;;16.00;14.00;;;;;21.20;41.11;99721.95;109045;1277;19214;-81
2021/12/29 07:10:48;;;;;;;;;15.67;13.67;;;;;21.21;41.36;99720.14;109089;1277;23754;-80
2021/12/29 07:13:14;;;;;;;;;17.00;16.00;;;;;21.22;41.41;99722.15;109105;1276;21372;-82
2021/12/29 07:15:40;;;;;;;;;16.00;15.50;;;;;21.21;41.28;99729.48;108992;1277;19267;-77
2021/12/29 07:18:06;;;;;;;;;17.50;16.00;;;;;21.22;41.11;99734.98;109026;1276;23295;-75
2021/12/29 07:20:32;;;;;;;;;14.50;14.00;;;;;21.22;41.13;99733.02;109080;1276;21995;-74
2021/12/29 07:22:58;;;;;;;;;15.00;15.00;;;;;21.19;41.19;99735.91;109669;1277;23817;-76
2021/12/29 07:25:24;;;;;;;;;18.50;17.00;;;;;21.20;41.99;99739.05;109097;1276;19505;-75
2021/12/29 07:27:50;;;;;;;;;16.67;16.00;;;;;21.24;43.27;99741.59;109014;1277;21958;-75
2021/12/29 07:30:16;;;;;;;;;17.00;16.50;;;;;21.24;43.20;99747.29;109041;1276;19206;-75
2021/12/29 07:32:42;;;;;;;;;20.00;16.00;;;;;21.27;44.25;99753.77;109076;1275;19380;-74
2021/12/29 07:35:08;;;;;;;;;20.00;16.00;;;;;21.28;44.66;99758.73;109046;1277;23665;-75
2021/12/29 07:37:33;;;;;;;;;17.50;16.00;;;;;21.29;46.45;99765.17;109036;1277;19165;-76
2021/12/29 07:40:01;;;;;;;;;20.50;16.00;;;;;21.30;47.28;99775.17;109071;1276;19370;-77
2021/12/29 07:42:28;;;;;;;;;13.67;13.00;;;;;21.35;48.03;99785.22;109128;1276;21802;-76
2021/12/29 07:44:54;;;;;;;;;18.67;18.67;;;;;21.38;47.94;99784.98;109058;1277;19486;-78
2021/12/29 07:47:20;;;;;;;;;18.00;16.50;;;;;21.39;46.72;99790.21;109054;1276;19262;-77
2021/12/29 07:49:45;;;;;;;;;21.00;17.00;;;;;21.37;46.18;99791.31;109130;1277;20147;-77
2021/12/29 07:52:11;;;;;;;;;17.00;16.00;;;;;21.34;45.60;99786.63;109033;1276;19984;-77
2021/12/29 07:54:37;;;;;;;;;16.50;16.00;;;;;21.33;45.36;99788.06;109063;1277;22932;-80
2021/12/29 07:57:03;;;;;;;;;16.50;14.00;;;;;21.30;44.93;99789.25;109062;1276;22127;-77
2021/12/29 07:59:29;;;;;;;;;28.00;22.00;;;;;21.35;44.76;99799.77;109091;1276;19170;-76
2021/12/29 08:01:55;;;;;;;;;74.33;52.67;;;;;21.39;44.46;99805.06;109044;1278;19506;-77
2021/12/29 08:04:20;;;;;;;;;61.67;49.33;;;;;21.41;44.13;99803.83;109053;1278;23270;-78
2021/12/29 08:06:46;;;;;;;;;73.67;52.67;;;;;21.38;43.85;99798.31;109059;1276;23332;-78
2021/12/29 08:09:12;;;;;;;;;82.00;59.33;;;;;21.42;43.67;99799.98;109113;1276;19399;-76
2021/12/29 08:11:38;;;;;;;;;94.33;66.33;;;;;21.41;43.54;99802.80;109123;1277;20342;-75
2021/12/29 08:14:04;;;;;;;;;95.67;68.00;;;;;21.40;43.22;99804.27;109038;1276;23141;-77
2021/12/29 08:16:30;;;;;;;;;95.67;69.67;;;;;21.43;43.37;99806.73;109078;1277;20911;-77
2021/12/29 08:18:56;;;;;;;;;92.33;66.00;;;;;21.39;43.37;99803.36;108773;1277;504887;-77
2021/12/29 08:21:22;;;;;;;;;87.33;63.00;;;;;21.40;43.44;99804.61;109247;1277;19341;-77
2021/12/29 08:23:47;;;;;;;;;86.00;61.33;;;;;21.38;43.29;99806.31;109056;1278;23966;-77
2021/12/29 08:26:13;;;;;;;;;83.00;61.00;;;;;21.33;43.31;99797.91;109071;1277;20323;-77
2021/12/29 08:28:39;;;;;;;;;80.33;59.67;;;;;21.33;43.19;99801.31;109046;1277;19505;-77
2021/12/29 08:31:05;;;;;;;;;82.67;58.67;;;;;21.28;42.95;99793.02;109054;1277;21679;-81
2021/12/29 08:33:31;;;;;;;;;73.67;54.33;;;;;21.33;43.26;99801.35;109079;1276;20224;-78
2021/12/29 08:35:57;;;;;;;;;74.33;53.00;;;;;21.33;42.99;99810.11;109058;1278;23465;-79
2021/12/29 08:38:23;;;;;;;;;71.00;52.00;;;;;21.36;42.83;99813.23;109061;1277;19853;-76
2021/12/29 08:40:51;;;;;;;;;70.33;52.67;;;;;21.38;42.96;99808.13;109044;1276;20428;-82
2021/12/29 08:43:17;;;;;;;;;68.00;52.33;;;;;21.35;42.58;99804.67;109078;1278;19671;-81
2021/12/29 08:45:43;;;;;;;;;58.67;47.00;;;;;21.34;42.78;99803.83;109066;1276;23784;-82
2021/12/29 08:48:09;;;;;;;;;59.67;47.00;;;;;21.34;42.73;99809.32;109059;1276;20239;-83
2021/12/29 08:50:35;;;;;;;;;56.00;44.00;;;;;21.17;41.82;99814.37;109079;1276;19231;-73
2021/12/29 08:53:02;;;;;;;;;59.00;47.67;;;;;20.94;41.34;99807.34;109076;1276;19365;-74
2021/12/29 08:55:28;;;;;;;;;56.67;47.33;;;;;20.93;41.05;99802.38;109053;1277;20411;-75
2021/12/29 08:57:53;;;;;;;;;61.00;44.50;;;;;20.96;40.51;99795.86;109119;1277;19220;-75
2021/12/29 09:00:19;;;;;;;;;58.50;46.50;;;;;21.03;39.93;99796.19;109150;1277;19355;-75
2021/12/29 09:02:45;;;;;;;;;50.50;40.00;;;;;21.09;39.58;99800.86;109089;1277;22377;-74
2021/12/29 09:05:11;;;;;;;;;51.00;40.50;;;;;21.10;39.43;99801.04;109081;1277;19312;-74
2021/12/29 09:07:37;;;;;;;;;52.00;43.00;;;;;21.12;39.38;99799.25;109027;1276;22879;-75
2021/12/29 09:10:04;;;;;;;;;57.00;43.50;;;;;21.13;39.40;99802.75;109021;1277;20303;-74
2021/12/29 09:12:30;;;;;;;;;55.33;43.33;;;;;21.13;39.41;99803.42;109050;1276;19441;-74
2021/12/29 09:14:55;;;;;;;;;47.50;40.00;;;;;21.13;39.30;99799.56;109102;1277;23921;-75
2021/12/29 09:17:21;;;;;;;;;42.50;40.00;;;;;21.14;39.45;99802.95;109095;1277;20088;-74
2021/12/29 09:19:47;;;;;;;;;55.00;42.50;;;;;21.13;39.39;99796.08;109093;1277;19229;-74
2021/12/29 09:22:13;;;;;;;;;40.67;37.33;;;;;21.13;39.55;99794.20;109049;1276;21261;-75
2021/12/29 09:24:39;;;;;;;;;46.00;39.00;;;;;21.13;39.68;99792.52;109235;1277;20287;-75
2021/12/29 09:27:05;;;;;;;;;43.50;36.50;;;;;21.13;39.80;99796.04;109969;1276;19123;-75
2021/12/29 09:29:33;;;;;;;;;46.00;33.00;;;;;21.16;39.85;99796.63;109730;1277;20121;-76
2021/12/29 09:31:59;;;;;;;;;43.00;37.00;;;;;21.18;39.69;99798.23;109088;1276;20518;-77
2021/12/29 09:34:25;;;;;;;;;44.50;35.00;;;;;21.21;39.79;99800.13;109117;1277;19339;-75
2021/12/29 09:36:51;;;;;;;;;42.00;33.00;;;;;21.20;40.14;99802.60;109113;1276;21863;-75
2021/12/29 09:39:17;;;;;;;;;41.00;35.00;;;;;21.22;40.45;99808.16;108990;1276;20256;-75
2021/12/29 09:41:43;;;;;;;;;43.00;38.00;;;;;21.23;41.73;99806.61;109143;1277;19136;-77
2021/12/29 09:44:10;;;;;;;;;36.50;32.50;;;;;21.25;42.77;99818.52;109081;1276;22711;-77
2021/12/29 09:46:36;;;;;;;;;45.67;36.00;;;;;21.25;42.78;99819.61;109057;1278;21970;-76
2021/12/29 09:49:02;;;;;;;;;37.00;34.00;;;;;21.26;42.85;99815.51;109004;1277;20270;-76
2021/12/29 09:51:28;;;;;;;;;42.00;35.00;;;;;21.23;42.62;99813.66;109108;1276;19817;-75
2021/12/29 09:53:54;;;;;;;;;69.67;53.00;;;;;21.22;42.87;99813.42;109143;1277;20297;-77
2021/12/29 09:56:20;;;;;;;;;136.00;106.00;;;;;21.21;43.09;99817.02;109040;1276;23841;-76
2021/12/29 09:58:46;;;;;;;;;167.33;131.33;;;;;21.21;43.27;99825.83;109060;1276;21123;-74
2021/12/29 10:01:12;;;;;;;;;216.50;165.75;;;;;21.20;43.21;99826.84;109061;1277;20085;-75
2021/12/29 10:03:38;;;;;;;;;170.67;125.67;;;;;21.19;43.34;99824.16;109069;1276;19343;-79
2021/12/29 10:06:03;;;;;;;;;212.50;155.00;;;;;21.20;43.23;99826.13;109254;1277;19569;-75
2021/12/29 10:08:29;;;;;;;;;161.67;128.33;;;;;21.20;43.06;99830.31;109019;1277;24468;-72
2021/12/29 10:10:55;;;;;;;;;184.33;138.67;;;;;21.18;42.17;99825.95;109774;1276;19318;-74
2021/12/29 10:13:21;;;;;;;;;188.00;138.33;;;;;21.17;42.89;99821.54;109081;1277;22260;-75
2021/12/29 10:15:47;;;;;;;;;164.67;126.67;;;;;21.17;42.90;99819.05;109108;1278;20252;-74
2021/12/29 10:18:13;;;;;;;;;166.33;125.33;;;;;21.16;42.74;99816.79;109043;1277;19534;-75
2021/12/29 10:20:39;;;;;;;;;160.00;112.33;;;;;21.15;42.60;99816.95;109075;1277;23334;-75
2021/12/29 10:23:04;;;;;;;;;142.33;106.67;;;;;21.16;42.35;99818.63;109101;1278;20318;-76
2021/12/29 10:25:30;;;;;;;;;145.00;113.67;;;;;21.19;42.27;99821.46;109019;1276;24792;-76
2021/12/29 10:27:56;;;;;;;;;142.00;112.33;;;;;21.21;42.30;99819.33;109113;1277;20382;-74
2021/12/29 10:30:22;;;;;;;;;132.33;102.00;;;;;21.24;42.34;99820.95;109017;1276;20711;-75
2021/12/29 10:32:48;;;;;;;;;129.67;97.33;;;;;21.28;42.51;99829.73;109035;1277;22622;-75
2021/12/29 10:35:14;;;;;;;;;125.00;94.00;;;;;21.30;42.49;99831.41;109998;1276;23671;-76
2021/12/29 10:37:40;;;;;;;;;118.00;91.00;;;;;21.30;42.66;99833.81;109363;1278;20720;-75
2021/12/29 10:40:05;;;;;;;;;115.67;91.33;;;;;21.30;42.89;99838.79;109065;1277;19174;-76
2021/12/29 10:42:31;;;;;;;;;109.33;86.33;;;;;21.29;43.23;99831.59;109064;1276;19463;-75
2021/12/29 10:44:59;;;;;;;;;109.50;82.50;;;;;21.32;45.45;99829.36;109092;1277;20574;-84
2021/12/29 10:47:25;;;;;;;;;104.67;79.33;;;;;21.31;46.17;99836.61;109039;1277;19270;-81
2021/12/29 10:49:51;;;;;;;;;107.67;81.00;;;;;21.31;45.51;99839.05;109066;1276;23743;-80
2021/12/29 10:52:17;;;;;;;;;103.33;75.00;;;;;21.29;47.18;99845.04;109092;1276;20222;-81
2021/12/29 10:54:43;;;;;;;;;101.00;72.00;;;;;21.30;46.04;99854.98;109049;1275;19267;-81
2021/12/29 10:57:09;;;;;;;;;100.67;73.67;;;;;21.29;46.61;99847.99;109131;1276;22741;-80
2021/12/29 10:59:36;;;;;;;;;104.50;79.00;;;;;21.22;46.55;99842.53;109080;1276;20671;-80
2021/12/29 11:02:01;;;;;;;;;102.67;81.67;;;;;21.20;45.45;99841.51;109085;1277;23471;-82
2021/12/29 11:04:27;;;;;;;;;231.50;185.25;;;;;21.17;44.66;99839.35;109120;1277;19529;-79